Time;durP1;ratioP1;P1;durP2;ratioP2;P2;SDS_P1;SDS_P2;PMS_P1;PMS_P2;Temp;Humidity;BMP_temperature;BMP_pressure;BME280_temperature;BME280_humidity;BME280_pressure;Samples;Min_cycle;Max_cycle;Signal;HPM_P1;HPM_P2
2023/08/14 00:02:22;;;;;;;7.68;3.03;;;;;;;-142.75;100.00;76212.03;5067493;28;20242;-64
2023/08/14 00:04:48;;;;;;;11.38;3.33;;;;;;;-142.75;100.00;76212.03;5067107;28;20024;-64
2023/08/14 00:07:13;;;;;;;7.72;2.80;;;;;;;-142.75;100.00;76221.88;5067368;28;20112;-64
2023/08/14 00:09:39;;;;;;;6.30;2.63;;;;;;;-142.75;100.00;76223.84;5067437;28;20543;-63
2023/08/14 00:12:05;;;;;;;9.05;2.95;;;;;;;-142.75;100.00;76233.69;5067307;28;20037;-63
2023/08/14 00:14:30;;;;;;;5.45;2.63;;;;;;;-142.75;100.00;76239.59;5080623;28;20023;-64
2023/08/14 00:16:56;;;;;;;4.53;2.35;;;;;;;-142.75;100.00;76255.34;5087800;28;20020;-64
2023/08/14 00:19:21;;;;;;;5.53;2.47;;;;;;;-142.75;100.00;76271.09;5075178;28;20040;-63
2023/08/14 00:21:47;;;;;;;5.63;2.75;;;;;;;-142.75;100.00;76251.41;5067365;28;20035;-63
2023/08/14 00:24:12;;;;;;;6.00;2.80;;;;;;;-142.75;100.00;76241.56;5069318;28;20016;-63
2023/08/14 00:26:37;;;;;;;3.97;2.35;;;;;;;-142.75;100.00;76233.69;5087536;28;20593;-63
2023/08/14 00:29:03;;;;;;;4.95;2.90;;;;;;;-142.75;100.00;76212.03;5087828;28;20024;-63
2023/08/14 00:31:28;;;;;;;3.85;2.20;;;;;;;-142.75;100.00;76200.25;5087142;28;20073;-63
2023/08/14 00:33:54;;;;;;;7.22;2.70;;;;;;;-142.75;100.00;76206.13;5082945;28;20767;-63
2023/08/14 00:36:19;;;;;;;9.38;3.42;;;;;;;-142.75;100.00;76204.16;5066857;28;20059;-63
2023/08/14 00:38:45;;;;;;;6.13;2.40;;;;;;;-142.75;100.00;76192.38;5066826;28;20032;-63
2023/08/14 00:41:10;;;;;;;7.55;2.63;;;;;;;-142.75;100.00;76192.38;5067240;28;20024;-63
2023/08/14 00:43:35;;;;;;;8.73;2.55;;;;;;;-142.75;100.00;76182.53;5066608;28;20028;-63
2023/08/14 00:46:01;;;;;;;6.40;2.67;;;;;;;-142.75;100.00;76180.56;5074790;28;20032;-64
2023/08/14 00:48:27;;;;;;;7.60;2.78;;;;;;;-142.75;100.00;76192.38;5086990;28;20031;-63
2023/08/14 00:50:54;;;;;;;10.55;3.08;;;;;;;-142.75;100.00;76200.25;5085558;28;20039;-63
2023/08/14 00:53:20;;;;;;;5.15;2.22;;;;;;;-142.75;100.00;76208.09;5086178;28;20032;-63
2023/08/14 00:55:46;;;;;;;7.18;3.13;;;;;;;-142.75;100.00;76214.00;5086482;28;20032;-63
2023/08/14 00:58:12;;;;;;;8.10;2.63;;;;;;;-142.75;100.00;76217.94;5067417;28;20031;-63
2023/08/14 01:00:39;;;;;;;7.65;2.53;;;;;;;-142.75;100.00;76231.72;5066956;28;20023;-63
2023/08/14 01:03:05;;;;;;;10.73;2.88;;;;;;;-142.75;100.00;76227.78;5073028;28;20514;-63
2023/08/14 01:05:31;;;;;;;4.82;2.60;;;;;;;-142.75;100.00;76229.75;5066433;28;20056;-63
2023/08/14 01:07:57;;;;;;;8.60;2.70;;;;;;;-142.75;100.00;76239.59;5066212;28;20051;-63
2023/08/14 01:10:26;;;;;;;7.05;2.80;;;;;;;-142.75;100.00;76247.47;5078486;28;20028;-63
2023/08/14 01:13:11;;;;;;;6.78;3.40;;;;;;;-142.75;100.00;76229.75;5067579;28;20078;-63
2023/08/14 01:15:42;;;;;;;5.82;3.00;;;;;;;-142.75;100.00;76212.03;5066163;28;20016;-63
2023/08/14 01:18:09;;;;;;;7.88;2.83;;;;;;;-142.75;100.00;76200.25;5066422;28;20028;-63
2023/08/14 01:20:37;;;;;;;9.73;3.58;;;;;;;-142.75;100.00;76184.50;5069760;28;20016;-63
2023/08/14 01:23:30;;;;;;;6.03;3.25;;;;;;;-142.75;100.00;76182.53;5070207;28;20090;-63
2023/08/14 01:25:56;;;;;;;7.20;3.70;;;;;;;-142.75;100.00;76196.31;5086186;28;20065;-63
2023/08/14 01:28:22;;;;;;;7.38;4.00;;;;;;;-142.75;100.00;76180.56;5086765;28;20032;-63
2023/08/14 01:30:47;;;;;;;9.35;3.67;;;;;;;-142.75;100.00;76166.78;5067757;28;20021;-63
2023/08/14 01:33:13;;;;;;;9.07;3.92;;;;;;;-142.75;100.00;76156.94;5065392;28;20027;-63
2023/08/14 01:35:42;;;;;;;10.52;3.83;;;;;;;-142.75;100.00;76151.03;5065493;28;20048;-63
2023/08/14 01:38:43;;;;;;;12.98;4.07;;;;;;;-142.75;100.00;76145.13;5075975;28;20445;-63
2023/08/14 01:41:15;;;;;;;11.10;3.83;;;;;;;-142.75;100.00;76153.00;5073579;28;20360;-63
2023/08/14 01:43:47;;;;;;;8.80;3.95;;;;;;;-142.75;100.00;76151.03;5082325;28;20029;-63
2023/08/14 01:46:14;;;;;;;8.93;4.55;;;;;;;-142.75;100.00;76154.97;5065584;28;20036;-64
2023/08/14 01:48:40;;;;;;;9.77;4.30;;;;;;;-142.75;100.00;76164.81;5065786;28;20024;-64
2023/08/14 01:51:06;;;;;;;7.82;4.18;;;;;;;-142.75;100.00;76154.97;5065629;28;20170;-64
2023/08/14 01:53:40;;;;;;;8.65;4.93;;;;;;;-142.75;100.00;76164.81;5065177;28;20111;-64
2023/08/14 01:56:06;;;;;;;11.50;4.82;;;;;;;-142.75;100.00;76170.72;5065398;28;20199;-64
2023/08/14 01:58:31;;;;;;;9.45;4.43;;;;;;;-142.75;100.00;76151.03;5066123;28;20533;-64
2023/08/14 02:00:57;;;;;;;9.38;5.22;;;;;;;-142.75;100.00;76158.91;5065560;28;20154;-64
2023/08/14 02:03:22;;;;;;;9.15;5.32;;;;;;;-142.75;100.00;76149.06;5066424;28;20024;-64
2023/08/14 02:05:47;;;;;;;9.38;4.85;;;;;;;-142.75;100.00;76160.88;5085462;28;20048;-64
2023/08/14 02:08:13;;;;;;;8.98;4.90;;;;;;;-142.75;100.00;76166.78;5085484;28;20059;-64
2023/08/14 02:10:38;;;;;;;14.27;4.93;;;;;;;-142.75;100.00;76166.78;5079863;28;20078;-64
2023/08/14 02:13:03;;;;;;;8.98;4.60;;;;;;;-142.75;100.00;76166.78;5068461;28;20032;-63
2023/08/14 02:15:29;;;;;;;8.48;5.00;;;;;;;-142.75;100.00;76188.44;5084515;28;20020;-63
2023/08/14 02:17:54;;;;;;;12.32;5.22;;;;;;;-142.75;100.00;76184.50;5076995;28;20099;-63
2023/08/14 02:20:19;;;;;;;9.30;4.93;;;;;;;-142.75;100.00;76178.59;5084689;28;20016;-64
2023/08/14 02:22:46;;;;;;;9.77;4.57;;;;;;;-142.75;100.00;76202.19;5084987;28;20024;-64
2023/08/14 02:25:11;;;;;;;7.30;4.50;;;;;;;-142.75;100.00;76186.47;5080188;28;20024;-64
2023/08/14 02:27:36;;;;;;;12.25;5.38;;;;;;;-142.75;100.00;76184.50;5065716;28;20372;-63
2023/08/14 02:30:03;;;;;;;10.23;5.40;;;;;;;-142.75;100.00;76188.44;5066518;28;20024;-64
2023/08/14 02:32:28;;;;;;;8.80;4.70;;;;;;;-142.75;100.00;76192.38;5065013;28;20020;-64
2023/08/14 02:34:53;;;;;;;10.55;4.75;;;;;;;-142.75;100.00;76186.47;5070576;28;20031;-64
2023/08/14 02:37:19;;;;;;;7.53;4.18;;;;;;;-142.75;100.00;76186.47;5079808;28;20499;-64
2023/08/14 02:39:45;;;;;;;8.93;4.47;;;;;;;-142.75;100.00;76186.47;5084856;28;20031;-64
2023/08/14 02:42:11;;;;;;;7.35;3.97;;;;;;;-142.75;100.00;76188.44;5078619;28;20081;-64
2023/08/14 02:44:37;;;;;;;9.88;4.07;;;;;;;-142.75;100.00;76190.41;5065167;28;20024;-64
2023/08/14 02:47:03;;;;;;;7.40;3.58;;;;;;;-142.75;100.00;76194.34;5068632;28;20027;-64
2023/08/14 02:49:28;;;;;;;6.55;3.85;;;;;;;-142.75;100.00;76200.25;5069266;28;20529;-64
2023/08/14 02:51:54;;;;;;;6.32;3.70;;;;;;;-142.75;100.00;76212.03;5070181;28;20107;-64
2023/08/14 02:54:20;;;;;;;9.93;3.70;;;;;;;-142.75;100.00;76214.00;5088658;28;20020;-64
2023/08/14 02:56:45;;;;;;;5.65;3.25;;;;;;;-142.75;100.00;76215.97;5083800;28;20476;-64
2023/08/14 02:59:11;;;;;;;7.85;3.35;;;;;;;-142.75;100.00;76215.97;5069549;28;20103;-64
2023/08/14 03:01:37;;;;;;;4.68;2.83;;;;;;;-142.75;100.00;76229.75;5068687;28;20024;-64
2023/08/14 03:04:02;;;;;;;5.40;2.63;;;;;;;-142.75;100.00;76223.84;5086957;28;20016;-65
2023/08/14 03:06:31;;;;;;;7.20;2.95;;;;;;;-142.75;100.00;76235.66;5088766;28;20031;-64
2023/08/14 03:09:00;;;;;;;5.22;2.45;;;;;;;-142.75;100.00;76233.69;5088640;28;20016;-64
2023/08/14 03:11:26;;;;;;;4.55;2.83;;;;;;;-142.75;100.00;76227.78;5076665;28;20024;-65
2023/08/14 03:13:51;;;;;;;7.07;2.97;;;;;;;-142.75;100.00;76223.84;5073435;28;20027;-65
2023/08/14 03:16:17;;;;;;;5.90;3.25;;;;;;;-142.75;100.00;76227.78;5083382;28;20106;-64
2023/08/14 03:18:42;;;;;;;6.75;3.75;;;;;;;-142.75;100.00;76231.72;5086787;28;20421;-65
2023/08/14 03:21:08;;;;;;;5.25;2.97;;;;;;;-142.75;100.00;76243.53;5088654;28;20024;-64
2023/08/14 03:23:37;;;;;;;6.55;3.08;;;;;;;-142.75;100.00;76231.72;5071462;28;20093;-64
2023/08/14 03:26:03;;;;;;;4.97;2.50;;;;;;;-142.75;100.00;76245.50;5068313;28;20047;-64
2023/08/14 03:28:29;;;;;;;3.78;2.22;;;;;;;-142.75;100.00;76237.63;5069155;28;20035;-64
2023/08/14 03:30:54;;;;;;;5.32;2.90;;;;;;;-142.75;100.00;76239.59;5068106;28;20037;-64
2023/08/14 03:33:19;;;;;;;4.93;2.58;;;;;;;-142.75;100.00;76247.47;5067835;28;20036;-64
2023/08/14 03:35:45;;;;;;;4.97;3.13;;;;;;;-142.75;100.00;76243.53;5068133;28;20107;-64
2023/08/14 03:38:10;;;;;;;9.18;3.88;;;;;;;-142.75;100.00;76247.47;5067935;28;20028;-64
2023/08/14 03:40:36;;;;;;;8.10;3.17;;;;;;;-142.75;100.00;76247.47;5068085;28;20048;-64
2023/08/14 03:43:02;;;;;;;5.60;3.53;;;;;;;-142.75;100.00;76241.56;5067805;28;20507;-63
2023/08/14 03:45:27;;;;;;;8.68;3.03;;;;;;;-142.75;100.00;76233.69;5067949;28;20502;-64
2023/08/14 03:47:53;;;;;;;8.32;3.88;;;;;;;-142.75;100.00;76245.50;5068036;28;20020;-64
2023/08/14 03:50:18;;;;;;;6.32;3.67;;;;;;;-142.75;100.00;76239.59;5067987;28;20056;-64
2023/08/14 03:52:44;;;;;;;9.88;4.35;;;;;;;-142.75;100.00;76243.53;5067746;28;20545;-64
2023/08/14 03:55:09;;;;;;;8.93;4.00;;;;;;;-142.75;100.00;76251.41;5078370;28;20024;-64
2023/08/14 03:57:34;;;;;;;8.98;3.63;;;;;;;-142.75;100.00;76243.53;5087160;28;20467;-64
2023/08/14 04:00:00;;;;;;;9.13;3.90;;;;;;;-142.75;100.00;76233.69;5088268;28;20371;-64
2023/08/14 04:02:25;;;;;;;6.53;3.78;;;;;;;-142.75;100.00;76231.72;5087669;28;20047;-64
2023/08/14 04:04:50;;;;;;;7.10;4.10;;;;;;;-142.75;100.00;76243.53;5087332;28;20032;-64
2023/08/14 04:07:16;;;;;;;9.75;3.95;;;;;;;-142.75;100.00;76237.63;5083963;28;20020;-64
2023/08/14 04:09:41;;;;;;;10.98;4.28;;;;;;;-142.75;100.00;76221.88;5070373;28;20020;-64
2023/08/14 04:12:07;;;;;;;11.88;3.88;;;;;;;-142.75;100.00;76227.78;5067631;28;20027;-64
2023/08/14 04:14:33;;;;;;;8.27;3.97;;;;;;;-142.75;100.00;76215.97;5067186;28;20020;-64
2023/08/14 04:16:58;;;;;;;8.55;3.65;;;;;;;-142.75;100.00;76219.91;5067578;28;20021;-64
2023/08/14 04:19:24;;;;;;;8.18;3.75;;;;;;;-142.75;100.00;76217.94;5069855;28;20078;-64
2023/08/14 04:21:49;;;;;;;6.75;3.72;;;;;;;-142.75;100.00;76208.09;5087542;28;20043;-64
2023/08/14 04:24:14;;;;;;;7.70;3.92;;;;;;;-142.75;100.00;76212.03;5085529;28;20080;-64
2023/08/14 04:26:40;;;;;;;9.82;4.30;;;;;;;-142.75;100.00;76217.94;5081892;28;20104;-64
2023/08/14 04:29:07;;;;;;;11.13;3.83;;;;;;;-142.75;100.00;76214.00;5069202;28;20020;-64
2023/08/14 04:31:33;;;;;;;8.48;4.43;;;;;;;-142.75;100.00;76215.97;5073174;28;20034;-64
2023/08/14 04:33:59;;;;;;;8.65;3.72;;;;;;;-142.75;100.00;76208.09;5067097;28;20028;-64
2023/08/14 04:36:24;;;;;;;6.85;4.22;;;;;;;-142.75;100.00;76202.19;5067012;28;20032;-64
2023/08/14 04:38:50;;;;;;;9.75;3.65;;;;;;;-142.75;100.00;76192.38;5066951;28;20031;-64
2023/08/14 04:41:15;;;;;;;6.93;4.00;;;;;;;-142.75;100.00;76178.59;5066719;28;20055;-64
2023/08/14 04:43:40;;;;;;;10.73;3.47;;;;;;;-142.75;100.00;76184.50;5066663;28;20100;-64
2023/08/14 04:46:13;;;;;;;9.10;4.30;;;;;;;-142.75;100.00;76174.66;5066949;28;20021;-64
2023/08/14 04:48:38;;;;;;;8.50;3.97;;;;;;;-142.75;100.00;76176.63;5066981;28;20032;-64
2023/08/14 04:51:05;;;;;;;11.15;4.88;;;;;;;-142.75;100.00;76178.59;5066900;28;20444;-64
2023/08/14 04:53:31;;;;;;;6.72;4.25;;;;;;;-142.75;100.00;76174.66;5066469;28;20032;-64
2023/08/14 04:55:56;;;;;;;7.80;3.65;;;;;;;-142.75;100.00;76168.75;5066703;28;20036;-64
2023/08/14 04:58:21;;;;;;;5.60;4.20;;;;;;;-142.75;100.00;76166.78;5067254;28;20621;-64
2023/08/14 05:00:47;;;;;;;5.93;3.60;;;;;;;-142.75;100.00;76164.81;5066499;28;20055;-65
2023/08/14 05:03:12;;;;;;;8.68;4.50;;;;;;;-142.75;100.00;76168.75;5077846;28;20112;-64
2023/08/14 05:05:37;;;;;;;8.55;4.13;;;;;;;-142.75;100.00;76149.06;5066630;28;20177;-64
2023/08/14 05:08:03;;;;;;;9.55;4.40;;;;;;;-142.75;100.00;76153.00;5076863;28;20166;-64
2023/08/14 05:10:28;;;;;;;10.93;4.38;;;;;;;-142.75;100.00;76141.19;5085916;28;20035;-65
2023/08/14 05:12:55;;;;;;;10.00;4.22;;;;;;;-142.75;100.00;76149.06;5083287;28;20033;-65
2023/08/14 05:15:21;;;;;;;10.38;4.15;;;;;;;-142.75;100.00;76141.19;5066232;28;20488;-64
2023/08/14 05:17:46;;;;;;;14.57;5.07;;;;;;;-142.75;100.00;76158.91;5066368;28;20025;-64
2023/08/14 05:20:12;;;;;;;12.00;4.72;;;;;;;-142.75;100.00;76149.06;5066154;28;20020;-64
2023/08/14 05:22:38;;;;;;;7.60;4.20;;;;;;;-142.75;100.00;76166.78;5066204;28;20029;-64
2023/08/14 05:25:03;;;;;;;9.02;4.25;;;;;;;-142.75;100.00;76156.94;5065822;28;20029;-63
2023/08/14 05:27:29;;;;;;;10.50;5.10;;;;;;;-142.75;100.00;76158.91;5066166;28;20028;-64
2023/08/14 05:29:54;;;;;;;6.70;3.80;;;;;;;-142.75;100.00;76170.72;5066756;28;20026;-64
2023/08/14 05:32:19;;;;;;;8.38;4.35;;;;;;;-142.75;100.00;76160.88;5065848;28;20032;-65
2023/08/14 05:34:45;;;;;;;8.50;4.53;;;;;;;-142.75;100.00;76158.91;5065539;28;20035;-64
2023/08/14 05:37:10;;;;;;;9.63;4.45;;;;;;;-142.75;100.00;76156.94;5065741;28;20024;-64
2023/08/14 05:39:35;;;;;;;7.45;4.43;;;;;;;-142.75;100.00;76156.94;5064503;28;20025;-64
2023/08/14 05:42:01;;;;;;;9.35;4.32;;;;;;;-142.75;100.00;76149.06;5066334;28;20473;-64
2023/08/14 05:44:26;;;;;;;8.35;4.38;;;;;;;-142.75;100.00;76141.19;5065582;28;20051;-64
2023/08/14 05:46:51;;;;;;;6.68;4.63;;;;;;;-142.75;100.00;76151.03;5065633;28;20031;-64
2023/08/14 05:49:17;;;;;;;10.88;4.90;;;;;;;-142.75;100.00;76149.06;5066033;28;20119;-64
2023/08/14 05:51:43;;;;;;;9.80;5.03;;;;;;;-142.75;100.00;76151.03;5065838;28;20158;-64
2023/08/14 05:54:08;;;;;;;8.77;4.90;;;;;;;-142.75;100.00;76141.19;5065241;28;20098;-64
2023/08/14 05:56:34;;;;;;;10.13;5.30;;;;;;;-142.75;100.00;76133.31;5065589;28;20017;-64
2023/08/14 05:58:59;;;;;;;13.05;5.28;;;;;;;-142.75;100.00;76133.31;5066464;28;20025;-64
2023/08/14 06:01:25;;;;;;;8.38;4.97;;;;;;;-142.75;100.00;76137.25;5065374;28;20033;-64
2023/08/14 06:03:51;;;;;;;10.52;5.38;;;;;;;-142.75;100.00;76135.28;5065179;28;20029;-64
2023/08/14 06:06:16;;;;;;;8.98;4.97;;;;;;;-142.75;100.00;76115.59;5065241;28;20038;-64
2023/08/14 06:08:42;;;;;;;12.98;5.05;;;;;;;-142.75;100.00;76121.50;5080783;28;20020;-64
2023/08/14 06:11:07;;;;;;;8.07;5.22;;;;;;;-142.75;100.00;76115.59;5085330;28;20028;-64
2023/08/14 06:13:32;;;;;;;10.25;5.57;;;;;;;-142.75;100.00;76093.94;5084923;28;20031;-65
2023/08/14 06:15:58;;;;;;;8.98;5.78;;;;;;;-142.75;100.00;76090.00;5076429;28;20664;-64
2023/08/14 06:18:23;;;;;;;11.13;6.07;;;;;;;-142.75;100.00;76078.19;5065936;28;20098;-64
2023/08/14 06:20:52;;;;;;;9.30;5.75;;;;;;;-142.75;100.00;76054.59;5065582;28;20025;-64
2023/08/14 06:23:17;;;;;;;10.52;5.82;;;;;;;-142.75;100.00;76066.41;5065487;28;20081;-64
2023/08/14 06:25:42;;;;;;;10.05;6.00;;;;;;;-142.75;100.00;76064.44;5065621;28;20028;-65
2023/08/14 06:28:08;;;;;;;12.00;5.30;;;;;;;-142.75;100.00;76060.50;5065848;28;20021;-65
2023/08/14 06:30:33;;;;;;;8.43;5.38;;;;;;;-142.75;100.00;76070.34;5065253;28;20545;-65
2023/08/14 06:32:59;;;;;;;10.15;5.45;;;;;;;-142.75;100.00;76050.66;5069258;28;20434;-65
2023/08/14 06:35:24;;;;;;;11.05;5.65;;;;;;;-142.75;100.00;76034.91;5085056;28;20024;-64
2023/08/14 06:37:50;;;;;;;12.05;5.13;;;;;;;-142.75;100.00;76034.91;5072829;28;20405;-64
2023/08/14 06:40:15;;;;;;;7.15;4.88;;;;;;;-142.75;100.00;76015.22;5064708;28;20021;-64
2023/08/14 06:42:41;;;;;;;12.13;4.85;;;;;;;-142.75;100.00;76023.09;5064779;28;20056;-63
2023/08/14 06:45:07;;;;;;;10.25;4.38;;;;;;;-142.75;100.00;76023.09;5066798;28;20024;-64
2023/08/14 06:47:32;;;;;;;9.68;3.55;;;;;;;-142.75;100.00;76027.03;5073875;28;20770;-64
2023/08/14 06:49:57;;;;;;;5.80;3.13;;;;;;;-142.75;100.00;76042.78;5072678;28;20021;-63
2023/08/14 06:52:23;;;;;;;6.35;2.53;;;;;;;-142.75;100.00;76050.66;5081305;28;20494;-63
2023/08/14 06:54:48;;;;;;;4.15;2.40;;;;;;;-142.75;100.00;76044.75;5078441;28;20446;-64
2023/08/14 06:57:13;;;;;;;4.03;1.50;;;;;;;-142.75;100.00;76070.34;5080730;28;20096;-64
2023/08/14 06:59:39;;;;;;;7.15;2.03;;;;;;;-142.75;100.00;76052.63;5084862;28;20047;-64
2023/08/14 07:02:04;;;;;;;4.15;1.92;;;;;;;-142.75;100.00;76038.84;5080085;28;20024;-64
2023/08/14 07:04:30;;;;;;;5.88;1.40;;;;;;;-142.75;100.00;76038.84;5079041;28;20245;-64
2023/08/14 07:06:55;;;;;;;4.28;1.40;;;;;;;-142.75;100.00;76015.22;5076641;28;20396;-64
2023/08/14 07:09:21;;;;;;;3.90;1.10;;;;;;;-142.75;100.00;76027.03;5080319;28;20059;-64
2023/08/14 07:11:46;;;;;;;7.03;1.50;;;;;;;-142.75;100.00;76050.66;5074685;28;20085;-63
2023/08/14 07:14:11;;;;;;;3.00;1.33;;;;;;;-142.75;100.00;76064.44;5080516;28;20102;-64
2023/08/14 07:16:37;;;;;;;2.50;1.20;;;;;;;-142.75;100.00;76082.13;5079308;28;20017;-63
2023/08/14 07:19:02;;;;;;;3.63;1.02;;;;;;;-142.75;100.00;76072.31;5081742;28;20023;-64
2023/08/14 07:21:28;;;;;;;3.25;1.00;;;;;;;-142.75;100.00;76078.19;5078739;28;20150;-64
2023/08/14 07:23:53;;;;;;;6.35;1.30;;;;;;;-142.75;100.00;76093.94;5074958;28;20016;-63
2023/08/14 07:26:18;;;;;;;4.55;1.17;;;;;;;-142.75;100.00;76080.16;5081498;28;20107;-64
2023/08/14 07:28:44;;;;;;;2.22;1.02;;;;;;;-142.75;100.00;76058.53;5075697;28;20020;-64
2023/08/14 07:31:09;;;;;;;2.65;1.05;;;;;;;-142.75;100.00;76056.56;5078407;28;20495;-63
2023/08/14 07:33:35;;;;;;;3.65;1.38;;;;;;;-142.75;100.00;76058.53;5082541;28;20043;-64
2023/08/14 07:36:02;;;;;;;3.60;0.98;;;;;;;-142.75;100.00;76019.16;5083945;28;20020;-64
2023/08/14 07:38:27;;;;;;;2.67;0.90;;;;;;;-142.75;100.00;75977.81;5082176;28;20016;-64
2023/08/14 07:40:53;;;;;;;2.30;0.90;;;;;;;-142.75;100.00;75962.09;5084249;28;20513;-64
2023/08/14 07:43:19;;;;;;;2.75;0.80;;;;;;;-142.75;100.00;75958.16;5084508;28;20414;-64
2023/08/14 07:45:44;;;;;;;3.53;0.80;;;;;;;-142.75;100.00;75966.00;5087100;28;20023;-64
2023/08/14 07:48:10;;;;;;;3.17;0.80;;;;;;;-142.75;100.00;75926.66;5080218;28;20024;-64
2023/08/14 07:50:36;;;;;;;2.60;0.80;;;;;;;-142.75;100.00;75873.50;5084711;28;20500;-64
2023/08/14 07:53:01;;;;;;;2.25;1.10;;;;;;;-142.75;100.00;75859.72;5081752;28;20032;-64
2023/08/14 07:55:26;;;;;;;1.38;0.82;;;;;;;-142.75;100.00;75842.03;5080894;28;20024;-65
2023/08/14 07:57:52;;;;;;;3.13;1.33;;;;;;;-142.75;100.00;75842.03;5085178;28;20062;-63
2023/08/14 08:00:17;;;;;;;3.20;0.80;;;;;;;-142.75;100.00;75844.00;5081301;28;20484;-65
2023/08/14 08:02:43;;;;;;;3.45;1.13;;;;;;;-142.75;100.00;75824.31;5076723;28;20032;-65
2023/08/14 08:05:08;;;;;;;6.00;0.80;;;;;;;-142.75;100.00;75806.59;5069478;28;20537;-63
2023/08/14 08:07:34;;;;;;;3.67;1.02;;;;;;;-142.75;100.00;75802.66;5070193;28;20035;-65
2023/08/14 08:09:59;;;;;;;2.97;0.80;;;;;;;-142.75;100.00;75786.91;5070224;28;20430;-65
2023/08/14 08:12:24;;;;;;;1.92;0.85;;;;;;;-142.75;100.00;75781.00;5069970;28;20557;-63
2023/08/14 08:14:50;;;;;;;3.45;0.90;;;;;;;-142.75;100.00;75761.34;5069901;28;20032;-64
2023/08/14 08:17:17;;;;;;;4.55;0.90;;;;;;;-142.75;100.00;75765.25;5069009;28;20146;-65
2023/08/14 08:19:42;;;;;;;3.50;1.00;;;;;;;-142.75;100.00;75767.22;5068582;28;20028;-65
2023/08/14 08:22:08;;;;;;;4.72;1.02;;;;;;;-142.75;100.00;75745.59;5070088;28;20031;-64
2023/08/14 08:24:33;;;;;;;3.90;0.80;;;;;;;-142.75;100.00;75755.44;5077775;28;20028;-65
2023/08/14 08:26:58;;;;;;;2.88;0.90;;;;;;;-142.75;100.00;75735.75;5076230;28;20035;-65
2023/08/14 08:29:24;;;;;;;5.13;1.35;;;;;;;-142.75;100.00;75692.44;5077288;28;20458;-65
2023/08/14 08:31:49;;;;;;;2.63;1.13;;;;;;;-142.75;100.00;75688.50;5069433;28;20017;-67
2023/08/14 08:34:14;;;;;;;3.50;1.20;;;;;;;-142.75;100.00;75686.53;5069410;28;20033;-65
2023/08/14 08:36:40;;;;;;;3.85;1.10;;;;;;;-142.75;100.00;75702.28;5069507;28;20020;-65
2023/08/14 08:39:05;;;;;;;3.40;1.30;;;;;;;-142.75;100.00;75678.66;5072835;28;20081;-66
2023/08/14 08:41:32;;;;;;;3.63;1.20;;;;;;;-142.75;100.00;75662.94;5071386;28;20086;-66
2023/08/14 08:44:04;;;;;;;3.25;1.50;;;;;;;-142.75;100.00;75660.97;5084803;28;20024;-66
2023/08/14 08:46:34;;;;;;;4.13;1.42;;;;;;;-142.75;100.00;75653.09;5089338;28;20059;-65
2023/08/14 08:49:02;;;;;;;5.43;1.50;;;;;;;-142.75;100.00;75629.47;5087843;28;20506;-65
2023/08/14 08:51:29;;;;;;;5.45;1.70;;;;;;;-142.75;100.00;75631.44;5089197;28;20050;-66
2023/08/14 08:53:54;;;;;;;6.97;1.98;;;;;;;-142.75;100.00;75625.53;5088544;28;20056;-65
2023/08/14 08:56:20;;;;;;;7.90;1.40;;;;;;;-142.75;100.00;75631.44;5089041;28;20062;-65
2023/08/14 08:58:46;;;;;;;5.75;1.70;;;;;;;-142.75;100.00;75599.94;5088372;28;20540;-65
2023/08/14 09:01:12;;;;;;;6.32;1.70;;;;;;;-142.75;100.00;75617.66;5089227;28;20686;-65
2023/08/14 09:03:37;;;;;;;9.57;2.08;;;;;;;-142.75;100.00;75596.00;5088680;28;20070;-66
2023/08/14 09:06:03;;;;;;;6.55;1.85;;;;;;;-142.75;100.00;75588.16;5070124;28;20020;-65
2023/08/14 09:08:28;;;;;;;8.02;1.75;;;;;;;-142.75;100.00;75584.22;5068835;28;20020;-65
2023/08/14 09:10:54;;;;;;;7.60;2.13;;;;;;;-142.75;100.00;75562.56;5077167;28;20034;-65
2023/08/14 09:13:19;;;;;;;8.65;2.28;;;;;;;-142.75;100.00;75574.38;5088352;28;20428;-64
2023/08/14 09:15:45;;;;;;;9.40;1.80;;;;;;;-142.75;100.00;75570.44;5081667;28;20032;-65
2023/08/14 09:18:11;;;;;;;9.48;1.50;;;;;;;-142.75;100.00;75546.81;5074697;28;20073;-64
2023/08/14 09:20:38;;;;;;;4.15;1.50;;;;;;;-142.75;100.00;75535.00;5074765;28;20031;-65
2023/08/14 09:23:03;;;;;;;5.05;1.83;;;;;;;-142.75;100.00;75531.06;5073226;28;20035;-65
2023/08/14 09:25:29;;;;;;;6.15;1.85;;;;;;;-142.75;100.00;75509.44;5069531;28;20021;-65
2023/08/14 09:27:57;;;;;;;9.60;2.30;;;;;;;-142.75;100.00;75511.41;5076632;28;20047;-65
2023/08/14 09:30:26;;;;;;;7.43;2.45;;;;;;;-142.75;100.00;75503.53;5088222;28;20028;-65
2023/08/14 09:32:53;;;;;;;6.18;2.33;;;;;;;-142.75;100.00;75491.72;5087734;28;20024;-65
2023/08/14 09:35:19;;;;;;;7.55;1.52;;;;;;;-142.75;100.00;75489.75;5087832;28;20034;-65
2023/08/14 09:37:47;;;;;;;8.40;2.20;;;;;;;-142.75;100.00;75460.22;5087772;28;20394;-65
2023/08/14 09:40:17;;;;;;;8.80;2.38;;;;;;;-142.75;100.00;75448.41;5087953;28;20032;-64
2023/08/14 09:42:47;;;;;;;3.75;1.60;;;;;;;-142.75;100.00;75448.41;5088266;28;20056;-65
2023/08/14 09:45:14;;;;;;;5.38;1.95;;;;;;;-142.75;100.00;75448.41;5088328;28;20032;-64
2023/08/14 09:47:46;;;;;;;7.45;1.92;;;;;;;-142.75;100.00;75409.06;5086782;28;20020;-64
2023/08/14 09:50:15;;;;;;;3.33;1.55;;;;;;;-142.75;100.00;75434.66;5068328;28;20028;-63
2023/08/14 09:52:40;;;;;;;5.50;1.92;;;;;;;-142.75;100.00;75414.97;5068190;28;20032;-64
2023/08/14 09:55:06;;;;;;;4.10;1.30;;;;;;;-142.75;96.51;75391.34;5071456;28;20024;-63
2023/08/14 09:57:32;;;;;;;4.15;1.25;;;;;;;-142.75;100.00;75377.56;5069419;28;20426;-64
2023/08/14 09:59:58;;;;;;;3.83;1.30;;;;;;;-142.75;98.07;75411.03;5068212;28;20495;-63
2023/08/14 10:02:24;;;;;;;4.20;1.45;;;;;;;-142.75;95.05;75377.56;5068007;28;20025;-64
2023/08/14 10:04:50;;;;;;;6.03;1.48;;;;;;;-142.75;93.05;75381.50;5080212;28;20031;-63
2023/08/14 10:07:17;;;;;;;3.88;0.93;;;;;;;-142.75;88.48;75420.88;5077557;28;20056;-63
2023/08/14 10:09:51;;;;;;;2.92;0.90;;;;;;;-142.75;91.16;75403.16;5071771;28;20020;-63
2023/08/14 10:12:20;;;;;;;3.95;1.27;;;;;;;-142.75;92.83;75357.91;5077589;28;20077;-63
2023/08/14 10:14:55;;;;;;;7.05;1.30;;;;;;;-142.75;84.81;75338.22;5080066;28;20016;-63
2023/08/14 10:17:29;;;;;;;6.55;1.55;;;;;;;-142.75;85.24;75302.78;5068397;28;20016;-63
2023/08/14 10:19:56;;;;;;;4.47;1.63;;;;;;;-142.75;87.25;75381.50;5068356;28;20036;-63
2023/08/14 10:22:23;;;;;;;7.18;1.50;;;;;;;-142.75;89.26;75367.72;5069124;28;20047;-63
2023/08/14 10:24:51;;;;;;;6.68;1.27;;;;;;;-142.75;87.25;75357.91;5073693;28;20028;-63
2023/08/14 10:27:16;;;;;;;5.43;1.60;;;;;;;-142.75;90.44;75401.19;5079966;28;20028;-63
2023/08/14 10:29:42;;;;;;;4.57;1.48;;;;;;;-142.75;93.97;75381.50;5078394;28;20545;-64
2023/08/14 10:32:09;;;;;;;3.53;1.02;;;;;;;-142.75;95.77;75365.75;5066855;28;20020;-64
2023/08/14 10:34:34;;;;;;;7.72;1.75;;;;;;;-142.75;94.85;75359.88;5070589;28;20111;-66
2023/08/14 10:36:59;;;;;;;4.93;1.25;;;;;;;-142.75;94.74;75355.94;5078535;28;20042;-65
2023/08/14 10:39:35;;;;;;;4.15;1.50;;;;;;;-142.75;93.46;75353.97;5072469;28;20053;-66
2023/08/14 10:42:03;;;;;;;;;;;;;;;-142.75;100.00;75355.94;5071279;28;20491;-66
2023/08/14 10:44:34;;;;;;;7.00;1.52;;;;;;;-142.75;92.07;75350.03;5079758;28;20268;-65
2023/08/14 10:47:06;;;;;;;4.07;1.30;;;;;;;-142.75;96.03;75334.28;5084170;28;20027;-64
2023/08/14 10:49:45;;;;;;;3.75;1.33;;;;;;;-142.75;99.55;75273.28;5080363;28;20035;-64
2023/08/14 10:52:19;;;;;;;3.97;0.90;;;;;;;-142.75;89.60;75269.34;5075756;28;20100;-63
2023/08/14 10:54:50;;;;;;;5.90;1.55;;;;;;;-142.75;93.88;75226.06;5076319;28;20024;-63
2023/08/14 10:57:16;;;;;;;3.40;1.17;;;;;;;-142.75;83.28;75218.19;5078422;28;20024;-62
2023/08/14 10:59:41;;;;;;;6.82;1.35;;;;;;;-142.75;82.63;75229.97;5067993;28;20442;-62
2023/08/14 11:02:09;;;;;;;6.25;1.60;;;;;;;-142.75;88.63;75155.22;5067128;28;20048;-62
2023/08/14 11:04:40;;;;;;;5.80;1.10;;;;;;;-142.75;81.82;75168.97;5067096;28;20074;-63
2023/08/14 11:07:11;;;;;;;3.92;1.02;;;;;;;-142.75;82.17;75133.56;5067265;28;20439;-63